createdAt,value
2018-12-30T11:02:58.311Z,1026.71
2018-12-30T11:03:59.011Z,1026.72
2018-12-30T11:06:53.505Z,1026.72
2018-12-30T11:07:55.257Z,1026.71
2018-12-30T11:10:50.179Z,1026.76
2018-12-30T11:11:50.828Z,1026.73
2018-12-30T11:14:54.818Z,1026.68
2018-12-30T11:15:55.476Z,1026.63
2018-12-30T11:18:50.093Z,1026.58
2018-12-30T11:19:50.720Z,1026.55
2018-12-30T11:22:47.786Z,1026.53
2018-12-30T11:23:48.504Z,1026.48
2018-12-30T11:26:43.031Z,1026.54
2018-12-30T11:27:43.679Z,1026.51
2018-12-30T11:30:38.658Z,1026.57
2018-12-30T11:31:39.311Z,1026.54
2018-12-30T11:34:33.565Z,1026.53
2018-12-30T11:35:34.244Z,1026.51
2018-12-30T11:36:34.906Z,1026.53
2018-12-30T11:37:35.586Z,1026.58
2018-12-30T11:38:36.240Z,1026.59
2018-12-30T11:39:37.960Z,1026.57
2018-12-30T11:40:38.607Z,1026.58
2018-12-30T11:41:39.311Z,1026.59
2018-12-30T11:42:39.959Z,1026.57
2018-12-30T11:43:40.660Z,1026.59
2018-12-30T11:44:41.298Z,1026.59
2018-12-30T11:45:41.998Z,1026.55
2018-12-30T11:46:42.642Z,1026.51
2018-12-30T11:47:43.354Z,1026.45
2018-12-30T11:48:43.984Z,1026.42
2018-12-30T11:49:44.688Z,1026.43
2018-12-30T11:50:45.338Z,1026.42
2018-12-30T11:51:46.027Z,1026.43
2018-12-30T11:52:46.686Z,1026.41
2018-12-30T11:53:47.381Z,1026.39
2018-12-30T11:54:48.032Z,1026.36
2018-12-30T11:55:48.728Z,1026.32
2018-12-30T11:56:49.374Z,1026.28
2018-12-30T11:57:50.067Z,1026.25
2018-12-30T11:58:50.711Z,1026.23
2018-12-30T11:59:51.413Z,1026.23
2018-12-30T12:00:52.062Z,1026.21
2018-12-30T12:01:52.789Z,1026.27
2018-12-30T12:02:53.408Z,1026.27
2018-12-30T12:03:54.107Z,1026.25
2018-12-30T12:04:54.760Z,1026.25
2018-12-30T12:05:55.444Z,1026.17
2018-12-30T12:06:56.089Z,1026.19
2018-12-30T12:07:56.795Z,1026.15
2018-12-30T12:08:57.451Z,1026.16
2018-12-30T12:09:58.134Z,1026.11
2018-12-30T12:10:58.778Z,1026.15
2018-12-30T12:12:01.546Z,1026.22
2018-12-30T12:14:09.500Z,1026.22
2018-12-30T12:15:10.150Z,1026.16
2018-12-30T12:16:10.955Z,1026.14
2018-12-30T12:17:11.605Z,1026.16
2018-12-30T12:18:12.298Z,1026.15
2018-12-30T12:19:12.944Z,1026.23
2018-12-30T12:20:13.656Z,1026.21
2018-12-30T12:21:14.288Z,1026.27
2018-12-30T12:22:14.986Z,1026.25
2018-12-30T12:23:15.637Z,1026.27
2018-12-30T12:24:20.690Z,1026.32
2018-12-30T12:25:16.985Z,1026.33
2018-12-30T12:26:17.677Z,1026.31
2018-12-30T12:27:18.325Z,1026.33
2018-12-30T12:28:19.021Z,1026.37
2018-12-30T12:29:19.673Z,1026.41
2018-12-30T12:30:20.367Z,1026.34
2018-12-30T12:31:21.020Z,1026.34
2018-12-30T12:32:21.711Z,1026.34
2018-12-30T12:33:22.357Z,1026.30
2018-12-30T12:34:23.057Z,1026.32
2018-12-30T12:35:23.699Z,1026.34
2018-12-30T12:36:24.398Z,1026.33
2018-12-30T12:37:25.123Z,1026.41
2018-12-30T12:38:25.741Z,1026.40
2018-12-30T12:39:26.394Z,1026.35
2018-12-30T12:40:27.098Z,1026.28
2018-12-30T12:41:27.736Z,1026.27
2018-12-30T12:42:28.439Z,1026.21
2018-12-30T12:43:29.091Z,1026.23
2018-12-30T12:44:29.782Z,1026.21
2018-12-30T12:45:30.432Z,1026.21
2018-12-30T12:46:31.128Z,1026.25
2018-12-30T12:47:32.078Z,1026.24
2018-12-30T12:48:32.682Z,1026.15
2018-12-30T12:49:33.323Z,1026.22
2018-12-30T12:50:34.035Z,1026.19
2018-12-30T12:51:34.684Z,1026.26
2018-12-30T12:52:35.360Z,1026.22
2018-12-30T12:53:36.013Z,1026.27
2018-12-30T12:54:36.665Z,1026.26
2018-12-30T12:55:37.334Z,1026.28
2018-12-30T12:56:38.057Z,1026.25
2018-12-30T12:57:38.704Z,1026.27
2018-12-30T12:58:39.405Z,1026.31
2018-12-30T12:59:40.050Z,1026.36
2018-12-30T13:00:40.746Z,1026.29
2018-12-30T13:01:41.403Z,1026.37
2018-12-30T13:02:42.089Z,1026.36
2018-12-30T13:03:42.816Z,1026.32
2018-12-30T13:04:43.439Z,1026.36
2018-12-30T13:05:44.097Z,1026.37
2018-12-30T13:06:44.790Z,1026.36
2018-12-30T13:07:45.451Z,1026.41
2018-12-30T13:08:46.145Z,1026.45
2018-12-30T13:09:46.775Z,1026.42
2018-12-30T13:10:47.470Z,1026.46
2018-12-30T13:11:48.131Z,1026.47
2018-12-30T13:12:48.918Z,1026.44
2018-12-30T13:13:49.567Z,1026.44
2018-12-30T13:14:50.268Z,1026.44
2018-12-30T13:15:50.914Z,1026.48
2018-12-30T13:16:51.603Z,1026.45
2018-12-30T13:17:52.253Z,1026.40
2018-12-30T13:18:52.958Z,1026.35
2018-12-30T13:19:53.600Z,1026.36
2018-12-30T13:20:54.855Z,1026.35
2018-12-30T13:21:54.940Z,1026.30
2018-12-30T13:22:55.729Z,1026.32
2018-12-30T13:23:56.382Z,1026.34
2018-12-30T13:24:57.105Z,1026.35
2018-12-30T13:25:57.741Z,1026.35
2018-12-30T13:26:58.462Z,1026.34
2018-12-30T13:27:59.095Z,1026.35
2018-12-30T13:28:59.795Z,1026.39
2018-12-30T13:30:00.452Z,1026.40
2018-12-30T13:31:02.151Z,1026.39
2018-12-30T13:32:02.803Z,1026.42
2018-12-30T13:33:03.495Z,1026.48
2018-12-30T13:34:04.141Z,1026.48
2018-12-30T13:35:04.957Z,1026.46
2018-12-30T13:36:05.648Z,1026.49
2018-12-30T13:37:06.299Z,1026.47
2018-12-30T13:38:06.944Z,1026.51
2018-12-30T13:39:07.642Z,1026.47
2018-12-30T13:40:08.289Z,1026.44
2018-12-30T13:41:08.984Z,1026.42
2018-12-30T13:42:09.625Z,1026.40
2018-12-30T13:43:10.353Z,1026.37
2018-12-30T13:44:11.004Z,1026.42
2018-12-30T13:45:11.779Z,1026.42
2018-12-30T13:46:12.423Z,1026.42
2018-12-30T13:47:13.119Z,1026.39
2018-12-30T13:48:13.761Z,1026.37
2018-12-30T13:49:14.467Z,1026.36
2018-12-30T13:50:15.120Z,1026.35
2018-12-30T13:51:15.807Z,1026.30
2018-12-30T13:52:16.544Z,1026.27
2018-12-30T13:53:17.152Z,1026.32
2018-12-30T13:54:17.802Z,1026.35
2018-12-30T13:55:18.494Z,1026.34
2018-12-30T13:56:19.145Z,1026.33
2018-12-30T13:57:19.841Z,1026.34
2018-12-30T13:58:20.610Z,1026.30
2018-12-30T13:59:21.289Z,1026.30
2018-12-30T14:00:21.943Z,1026.36
2018-12-30T14:01:22.633Z,1026.37
2018-12-30T14:02:23.283Z,1026.36
2018-12-30T14:03:23.978Z,1026.41
2018-12-30T14:04:24.627Z,1026.41
2018-12-30T14:05:25.323Z,1026.44
2018-12-30T14:06:25.983Z,1026.40
2018-12-30T14:07:26.670Z,1026.44
2018-12-30T14:08:27.317Z,1026.46
2018-12-30T14:09:28.008Z,1026.42
2018-12-30T14:10:28.653Z,1026.42
2018-12-30T14:11:29.353Z,1026.40
2018-12-30T14:12:30.005Z,1026.43
2018-12-30T14:13:30.706Z,1026.38
2018-12-30T14:14:31.438Z,1026.37
2018-12-30T14:15:33.126Z,1026.33
2018-12-30T14:16:33.797Z,1026.27
2018-12-30T14:17:34.467Z,1026.29
2018-12-30T14:18:35.129Z,1026.30
2018-12-30T14:19:35.818Z,1026.27
2018-12-30T14:20:36.474Z,1026.27
2018-12-30T14:21:37.157Z,1026.30
2018-12-30T14:22:37.805Z,1026.26
2018-12-30T14:23:38.497Z,1026.26
2018-12-30T14:24:39.162Z,1026.26
2018-12-30T14:25:39.846Z,1026.23
2018-12-30T14:26:40.505Z,1026.27
2018-12-30T14:27:41.187Z,1026.24
2018-12-30T14:28:41.839Z,1026.25
2018-12-30T14:29:42.537Z,1026.25
2018-12-30T14:30:43.191Z,1026.27
2018-12-30T14:31:43.880Z,1026.29
2018-12-30T14:32:44.539Z,1026.33
2018-12-30T14:33:45.221Z,1026.38
2018-12-30T14:34:45.890Z,1026.37
2018-12-30T14:35:46.565Z,1026.37
2018-12-30T14:36:47.217Z,1026.42
2018-12-30T16:45:49.266Z,1025.98
2018-12-30T16:46:49.805Z,1025.93
2018-12-30T17:54:24.110Z,1025.87
2018-12-30T17:55:24.595Z,1025.84
2018-12-30T17:58:18.543Z,1025.87
2018-12-30T17:59:19.118Z,1025.89
2018-12-30T18:02:13.134Z,1025.92
2018-12-30T18:03:13.622Z,1025.92
2018-12-30T18:06:07.842Z,1025.96
2018-12-30T18:07:08.321Z,1026.01
2018-12-30T18:10:02.127Z,1026.02
2018-12-30T18:11:02.620Z,1026.00
2018-12-30T18:13:56.726Z,1026.02
2018-12-30T18:14:57.310Z,1026.02
2018-12-30T18:17:52.046Z,1026.02
2018-12-30T18:18:54.244Z,1026.03
2018-12-30T18:21:48.362Z,1025.97
2018-12-30T18:22:48.466Z,1025.97
2018-12-30T18:23:50.272Z,1025.98
2018-12-30T18:24:50.279Z,1025.97
2018-12-30T18:25:49.808Z,1025.95
2018-12-30T18:26:50.294Z,1025.98
2018-12-30T18:27:50.750Z,1026.02
2018-12-30T18:28:51.204Z,1026.03
2018-12-30T18:29:51.850Z,1026.04
2018-12-30T18:30:52.382Z,1026.04
2018-12-30T18:31:52.797Z,1026.06
2018-12-30T18:32:53.142Z,1026.05
2018-12-30T18:33:53.773Z,1026.07
2018-12-30T18:34:54.367Z,1026.09
2018-12-30T18:35:54.719Z,1026.09
2018-12-30T18:36:55.093Z,1026.10
2018-12-30T18:39:37.601Z,1026.11
2018-12-30T18:40:38.317Z,1026.13
2018-12-30T18:43:32.785Z,1026.08
2018-12-30T18:44:34.531Z,1026.04
2018-12-30T18:47:28.988Z,1025.98
2018-12-30T18:48:29.481Z,1025.93
2018-12-30T18:49:29.953Z,1025.90
2018-12-30T18:50:30.446Z,1025.89
2018-12-30T18:51:31.612Z,1025.84
2018-12-30T18:52:32.259Z,1025.86
2018-12-30T18:53:32.963Z,1025.86
2018-12-30T18:54:33.602Z,1025.84
2018-12-30T18:55:34.296Z,1025.83
2018-12-30T18:56:34.951Z,1025.84
2018-12-30T18:57:35.643Z,1025.81
2018-12-30T18:58:36.293Z,1025.82
2018-12-30T18:59:37.042Z,1025.85
2018-12-30T19:00:37.562Z,1025.81
2018-12-30T19:01:38.125Z,1025.84
2018-12-30T19:02:38.804Z,1025.86
2018-12-30T19:03:39.273Z,1025.81
2018-12-30T19:04:39.798Z,1025.80
2018-12-30T19:05:40.279Z,1025.84
2018-12-30T19:06:40.836Z,1025.83
2018-12-30T19:07:41.316Z,1025.88
2018-12-30T19:08:41.872Z,1025.89
2018-12-30T19:09:42.388Z,1025.85
2018-12-30T19:10:42.909Z,1025.87
2018-12-30T19:11:43.391Z,1025.91
2018-12-30T19:12:43.946Z,1025.82
2018-12-30T19:13:44.439Z,1025.85
2018-12-30T19:14:44.990Z,1025.81
2018-12-30T19:15:45.462Z,1025.90
2018-12-30T19:16:46.020Z,1025.88
2018-12-30T19:17:46.498Z,1025.88
2018-12-30T19:18:47.063Z,1025.93
2018-12-30T19:19:47.565Z,1025.94
2018-12-30T19:20:48.096Z,1025.99
2018-12-30T19:21:48.611Z,1025.94
2018-12-30T19:22:50.173Z,1025.97
2018-12-30T19:23:50.649Z,1025.97
2018-12-30T19:24:51.210Z,1025.95
2018-12-30T19:25:51.695Z,1025.98
2018-12-30T19:26:52.239Z,1025.99
2018-12-30T19:27:52.739Z,1026.03
2018-12-30T19:28:53.216Z,1026.02
2018-12-30T19:29:53.875Z,1026.00
2018-12-30T19:30:54.362Z,1026.00
2018-12-30T19:31:55.014Z,1025.96
2018-12-30T19:32:55.492Z,1025.90
2018-12-30T19:33:56.152Z,1025.92
2018-12-30T19:34:56.626Z,1025.92
2018-12-30T19:35:57.294Z,1025.95
2018-12-30T19:36:57.777Z,1026.00
2018-12-30T19:37:58.543Z,1026.01
2018-12-30T19:38:59.019Z,1026.07
2018-12-30T19:39:59.677Z,1026.01
2018-12-30T19:41:00.185Z,1026.07
2018-12-30T19:42:00.915Z,1026.06
2018-12-30T19:43:01.415Z,1026.09
2018-12-30T19:44:02.075Z,1026.08
2018-12-30T19:45:02.538Z,1026.13
2018-12-30T19:46:04.003Z,1026.11
2018-12-30T19:47:03.569Z,1026.15
2018-12-30T19:48:04.138Z,1026.14
2018-12-30T19:49:04.628Z,1026.13
2018-12-30T19:50:05.215Z,1026.12
2018-12-30T19:51:05.650Z,1026.12
2018-12-30T19:52:06.218Z,1026.11
2018-12-30T19:53:06.702Z,1026.08
2018-12-30T19:54:07.250Z,1026.08
2018-12-30T19:55:07.726Z,1026.03
2018-12-30T19:56:08.344Z,1026.03
2018-12-30T19:57:08.822Z,1026.02
2018-12-30T19:58:09.363Z,1026.05
2018-12-30T19:59:09.849Z,1025.96
2018-12-30T20:00:10.400Z,1025.95
2018-12-30T20:01:10.875Z,1025.96
2018-12-30T20:02:11.433Z,1025.91
2018-12-30T20:03:11.927Z,1025.93
2018-12-30T20:04:13.500Z,1025.90
2018-12-30T20:05:13.983Z,1025.98
2018-12-30T20:06:14.540Z,1025.94
2018-12-30T20:07:15.029Z,1025.97
2018-12-30T20:08:15.578Z,1025.93
2018-12-30T20:09:16.052Z,1025.89
2018-12-30T20:10:16.637Z,1025.88
2018-12-30T20:11:17.114Z,1025.84
2018-12-30T20:12:17.651Z,1025.82
2018-12-30T20:13:18.138Z,1025.84
2018-12-30T20:14:18.685Z,1025.82
2018-12-30T20:15:19.181Z,1025.79
2018-12-30T20:16:19.734Z,1025.78
2018-12-30T20:17:20.217Z,1025.79
2018-12-30T20:18:20.773Z,1025.83
2018-12-30T20:19:21.252Z,1025.85
2018-12-30T20:20:21.801Z,1025.83
2018-12-30T20:21:22.411Z,1025.84
2018-12-30T20:22:22.835Z,1025.83
2018-12-30T20:23:23.333Z,1025.87
2018-12-30T20:24:23.842Z,1025.86
2018-12-30T20:25:24.411Z,1025.81
2018-12-30T20:26:29.854Z,1025.81
2018-12-30T20:27:25.445Z,1025.77
2018-12-30T20:28:25.917Z,1025.75
2018-12-30T20:29:26.467Z,1025.71
2018-12-30T20:30:26.949Z,1025.69
2018-12-30T20:31:27.507Z,1025.65
2018-12-30T20:32:28.000Z,1025.64
2018-12-30T20:33:28.550Z,1025.60
2018-12-30T20:34:29.045Z,1025.56
2018-12-30T20:35:29.586Z,1025.56
2018-12-30T20:36:30.063Z,1025.51
2018-12-30T20:37:30.624Z,1025.51
2018-12-30T20:38:31.099Z,1025.51
2018-12-30T20:39:31.660Z,1025.51
2018-12-30T20:40:32.142Z,1025.56
2018-12-30T20:41:32.680Z,1025.52
2018-12-30T20:42:33.175Z,1025.53
2018-12-30T20:43:33.723Z,1025.53
2018-12-30T20:44:34.211Z,1025.46
2018-12-30T20:45:34.790Z,1025.46
2018-12-30T20:51:05.214Z,1025.26
2018-12-30T20:52:05.852Z,1025.29
2018-12-30T20:54:59.701Z,1025.28
2018-12-30T20:56:00.351Z,1025.29
2018-12-30T20:58:54.224Z,1025.28
2018-12-30T20:59:54.887Z,1025.25
2018-12-30T21:00:55.536Z,1025.26
2018-12-30T21:01:56.184Z,1025.26
2018-12-30T21:02:56.827Z,1025.25
2018-12-30T21:03:57.481Z,1025.23
2018-12-30T21:04:58.134Z,1025.20
2018-12-30T21:05:58.790Z,1025.24
2018-12-30T21:06:59.429Z,1025.21
2018-12-30T21:08:00.087Z,1025.21
2018-12-30T21:09:00.739Z,1025.21
2018-12-30T21:10:01.379Z,1025.26
2018-12-30T21:11:02.030Z,1025.22
2018-12-30T21:12:02.679Z,1025.24
2018-12-30T21:13:03.330Z,1025.19
2018-12-30T21:14:03.985Z,1025.24
2018-12-30T21:15:04.643Z,1025.20
2018-12-30T21:16:05.295Z,1025.23
2018-12-30T21:17:05.961Z,1025.23
2018-12-30T21:18:06.591Z,1025.21
2018-12-30T21:19:07.246Z,1025.21
2018-12-30T21:20:07.896Z,1025.19
2018-12-30T21:21:08.541Z,1025.20
2018-12-30T21:22:09.195Z,1025.13
2018-12-30T21:23:09.852Z,1025.13
2018-12-30T21:24:10.507Z,1025.14
2018-12-30T21:25:11.165Z,1025.11
2018-12-30T21:26:11.822Z,1025.08
2018-12-30T21:27:12.472Z,1025.10
2018-12-30T21:28:13.121Z,1025.08
2018-12-30T21:29:13.778Z,1025.04
2018-12-30T21:30:14.427Z,1025.08
2018-12-30T21:31:15.073Z,1025.11
2018-12-30T21:32:15.721Z,1025.11
2018-12-30T21:33:16.454Z,1025.12
2018-12-30T21:34:17.029Z,1025.11
2018-12-30T21:35:17.682Z,1025.07
2018-12-30T21:36:18.344Z,1025.09
2018-12-30T21:37:18.995Z,1025.06
2018-12-30T21:38:19.640Z,1025.10
2018-12-30T21:39:20.295Z,1025.11
2018-12-30T21:40:20.952Z,1025.10
2018-12-30T21:41:21.589Z,1025.13
2018-12-30T21:42:22.248Z,1025.14
2018-12-30T21:43:22.901Z,1025.12
2018-12-30T21:44:23.552Z,1025.09
2018-12-30T21:45:24.203Z,1025.15
2018-12-30T21:46:24.855Z,1025.18
2018-12-30T21:47:25.515Z,1025.16
2018-12-30T21:48:26.158Z,1025.20
2018-12-30T21:49:26.814Z,1025.20
2018-12-30T21:50:27.468Z,1025.20
2018-12-30T21:51:28.126Z,1025.18
2018-12-30T21:52:28.777Z,1025.22
2018-12-30T21:53:29.432Z,1025.24
2018-12-30T21:54:30.078Z,1025.24
2018-12-30T21:55:30.732Z,1025.25
2018-12-30T21:56:31.385Z,1025.25
2018-12-30T21:57:32.055Z,1025.28
2018-12-30T21:58:32.696Z,1025.31
2018-12-30T21:59:33.347Z,1025.29
2018-12-30T22:00:33.990Z,1025.32
2018-12-30T22:01:34.652Z,1025.31
2018-12-30T22:02:35.316Z,1025.31
2018-12-30T22:03:35.981Z,1025.34
2018-12-30T22:04:36.902Z,1025.36
2018-12-30T22:05:37.274Z,1025.38
2018-12-30T22:06:37.918Z,1025.38
2018-12-30T22:07:38.570Z,1025.36
2018-12-30T22:08:39.233Z,1025.35
2018-12-30T22:09:39.875Z,1025.37
2018-12-30T22:10:40.527Z,1025.33
2018-12-30T22:11:41.181Z,1025.28
2018-12-30T22:12:41.824Z,1025.37
2018-12-30T22:13:42.476Z,1025.33
2018-12-30T22:14:43.129Z,1025.33
2018-12-30T22:15:43.782Z,1025.29
2018-12-30T22:16:44.430Z,1025.31
2018-12-30T22:17:45.079Z,1025.32
2018-12-30T22:18:45.725Z,1025.32
2018-12-30T22:19:46.377Z,1025.36
2018-12-30T22:20:47.054Z,1025.32
2018-12-30T22:21:47.682Z,1025.34
2018-12-30T22:22:48.333Z,1025.36
2018-12-30T22:23:48.976Z,1025.35
2018-12-30T22:24:49.628Z,1025.38
2018-12-30T22:25:50.283Z,1025.38
2018-12-30T22:26:50.930Z,1025.34
2018-12-30T22:27:51.582Z,1025.35
2018-12-30T22:28:52.238Z,1025.30
2018-12-30T22:29:52.879Z,1025.35
2018-12-30T22:30:53.562Z,1025.34
2018-12-30T22:31:54.189Z,1025.32
2018-12-30T22:32:54.844Z,1025.30
2018-12-30T22:33:55.496Z,1025.32
2018-12-30T22:34:56.162Z,1025.30
2018-12-30T22:35:56.799Z,1025.31
2018-12-30T22:36:57.454Z,1025.29
2018-12-30T22:37:58.101Z,1025.27
2018-12-30T22:38:58.750Z,1025.24
2018-12-30T22:39:59.423Z,1025.20
2018-12-30T22:41:00.052Z,1025.23
2018-12-30T22:42:00.704Z,1025.23
2018-12-30T22:43:01.361Z,1025.26
2018-12-30T22:44:02.026Z,1025.25
2018-12-30T22:45:02.682Z,1025.20
2018-12-30T22:46:03.332Z,1025.23
2018-12-30T22:47:03.983Z,1025.22
2018-12-30T22:48:04.645Z,1025.23
2018-12-30T22:49:05.297Z,1025.31
2018-12-30T22:50:05.943Z,1025.27
2018-12-30T22:51:06.588Z,1025.30
2018-12-30T22:52:07.243Z,1025.31
2018-12-30T22:53:07.897Z,1025.32
2018-12-30T22:54:08.550Z,1025.34
2018-12-30T22:55:09.200Z,1025.34
2018-12-30T22:56:09.849Z,1025.37
2018-12-30T22:57:10.494Z,1025.35
2018-12-30T22:58:11.137Z,1025.40
2018-12-30T22:59:11.788Z,1025.35
2018-12-30T23:00:12.447Z,1025.35
2018-12-30T23:01:13.095Z,1025.34
2018-12-30T23:02:13.748Z,1025.33
2018-12-30T23:03:14.398Z,1025.32
2018-12-30T23:04:15.046Z,1025.31
2018-12-30T23:05:15.689Z,1025.34
2018-12-30T23:06:16.357Z,1025.31
2018-12-30T23:07:17.010Z,1025.30
2018-12-30T23:08:17.653Z,1025.31
2018-12-30T23:09:18.310Z,1025.27
2018-12-30T23:10:18.962Z,1025.27
2018-12-30T23:11:19.618Z,1025.29
2018-12-30T23:12:20.276Z,1025.32
2018-12-30T23:13:20.924Z,1025.33
2018-12-30T23:14:21.566Z,1025.34
2018-12-30T23:15:22.220Z,1025.34
2018-12-30T23:16:22.869Z,1025.34
2018-12-30T23:17:23.519Z,1025.34
2018-12-30T23:18:24.176Z,1025.38
2018-12-30T23:19:24.833Z,1025.36
2018-12-30T23:20:25.482Z,1025.38
2018-12-30T23:21:26.127Z,1025.38
2018-12-30T23:22:26.783Z,1025.35
2018-12-30T23:23:27.433Z,1025.35
2018-12-30T23:24:28.080Z,1025.40
2018-12-30T23:25:28.731Z,1025.36
2018-12-30T23:26:29.380Z,1025.34
2018-12-30T23:27:30.027Z,1025.32
2018-12-30T23:28:30.674Z,1025.31
2018-12-30T23:29:31.335Z,1025.30
2018-12-30T23:30:31.992Z,1025.28
2018-12-30T23:31:32.638Z,1025.28
2018-12-30T23:32:33.300Z,1025.28
2018-12-30T23:33:33.949Z,1025.26
2018-12-30T23:34:34.594Z,1025.31
2018-12-30T23:35:35.251Z,1025.32
2018-12-30T23:36:35.914Z,1025.32
2018-12-30T23:37:36.557Z,1025.34
2018-12-30T23:38:37.203Z,1025.34
2018-12-30T23:39:37.856Z,1025.36
2018-12-30T23:40:38.512Z,1025.32
2018-12-30T23:41:39.161Z,1025.33
2018-12-30T23:42:39.810Z,1025.38
2018-12-30T23:43:40.459Z,1025.41
2018-12-30T23:44:41.112Z,1025.41
2018-12-30T23:45:41.776Z,1025.43
2018-12-30T23:46:42.424Z,1025.40
2018-12-30T23:47:43.075Z,1025.44
2018-12-30T23:48:43.724Z,1025.45
2018-12-30T23:49:44.377Z,1025.48
2018-12-30T23:50:45.022Z,1025.49
2018-12-30T23:51:45.678Z,1025.48
2018-12-30T23:52:46.326Z,1025.53
2018-12-30T23:53:46.977Z,1025.47
2018-12-30T23:54:47.624Z,1025.54
2018-12-30T23:55:48.275Z,1025.50
2018-12-30T23:56:48.933Z,1025.51
2018-12-30T23:57:49.591Z,1025.51
2018-12-30T23:58:50.239Z,1025.51
2018-12-30T23:59:50.896Z,1025.52
